sensor_id;sensor_type;location;lat;lon;timestamp;P1;durP1;ratioP1;P2;durP2;ratioP2
33824;SDS011;20127;48.962;8.342;2023-03-14T00:02:43;1.48;;;1.05;;
33824;SDS011;20127;48.962;8.342;2023-03-14T00:05:45;1.23;;;0.80;;
33824;SDS011;20127;48.962;8.342;2023-03-14T00:08:47;0.73;;;0.70;;
33824;SDS011;20127;48.962;8.342;2023-03-14T00:11:50;1.02;;;1.02;;
33824;SDS011;20127;48.962;8.342;2023-03-14T00:14:52;1.27;;;0.43;;
33824;SDS011;20127;48.962;8.342;2023-03-14T00:17:53;1.17;;;1.08;;
33824;SDS011;20127;48.962;8.342;2023-03-14T00:20:56;0.93;;;0.70;;
33824;SDS011;20127;48.962;8.342;2023-03-14T00:23:58;2.10;;;0.80;;
33824;SDS011;20127;48.962;8.342;2023-03-14T00:27:01;0.75;;;0.73;;
33824;SDS011;20127;48.962;8.342;2023-03-14T00:30:04;2.17;;;1.13;;
33824;SDS011;20127;48.962;8.342;2023-03-14T00:33:07;0.40;;;0.40;;
33824;SDS011;20127;48.962;8.342;2023-03-14T00:36:10;1.25;;;0.98;;
33824;SDS011;20127;48.962;8.342;2023-03-14T00:39:13;0.85;;;0.85;;
33824;SDS011;20127;48.962;8.342;2023-03-14T00:42:16;0.52;;;0.50;;
33824;SDS011;20127;48.962;8.342;2023-03-14T00:45:18;2.70;;;0.60;;
33824;SDS011;20127;48.962;8.342;2023-03-14T00:48:20;0.70;;;0.70;;
33824;SDS011;20127;48.962;8.342;2023-03-14T00:51:22;1.05;;;0.70;;
33824;SDS011;20127;48.962;8.342;2023-03-14T00:54:23;0.85;;;0.85;;
33824;SDS011;20127;48.962;8.342;2023-03-14T00:57:26;1.13;;;0.70;;
33824;SDS011;20127;48.962;8.342;2023-03-14T01:00:28;0.60;;;0.50;;
33824;SDS011;20127;48.962;8.342;2023-03-14T01:03:30;0.55;;;0.52;;
33824;SDS011;20127;48.962;8.342;2023-03-14T01:06:31;1.65;;;0.70;;
33824;SDS011;20127;48.962;8.342;2023-03-14T01:09:33;0.88;;;0.80;;
33824;SDS011;20127;48.962;8.342;2023-03-14T01:12:36;1.42;;;0.93;;
33824;SDS011;20127;48.962;8.342;2023-03-14T01:15:38;0.68;;;0.60;;
33824;SDS011;20127;48.962;8.342;2023-03-14T01:18:40;1.00;;;0.80;;
33824;SDS011;20127;48.962;8.342;2023-03-14T01:21:44;1.65;;;0.70;;
33824;SDS011;20127;48.962;8.342;2023-03-14T01:24:45;3.90;;;0.88;;
33824;SDS011;20127;48.962;8.342;2023-03-14T01:27:48;0.93;;;0.70;;
33824;SDS011;20127;48.962;8.342;2023-03-14T01:30:50;0.82;;;0.82;;
33824;SDS011;20127;48.962;8.342;2023-03-14T01:33:52;1.13;;;0.75;;
33824;SDS011;20127;48.962;8.342;2023-03-14T01:36:54;3.13;;;1.63;;
33824;SDS011;20127;48.962;8.342;2023-03-14T01:39:55;2.25;;;1.17;;
33824;SDS011;20127;48.962;8.342;2023-03-14T01:43:05;9.45;;;1.90;;
33824;SDS011;20127;48.962;8.342;2023-03-14T01:46:38;1.90;;;0.70;;
33824;SDS011;20127;48.962;8.342;2023-03-14T01:49:40;1.65;;;0.80;;
33824;SDS011;20127;48.962;8.342;2023-03-14T01:52:43;1.27;;;1.00;;
33824;SDS011;20127;48.962;8.342;2023-03-14T01:55:47;0.57;;;0.50;;
33824;SDS011;20127;48.962;8.342;2023-03-14T01:58:50;3.63;;;1.00;;
33824;SDS011;20127;48.962;8.342;2023-03-14T02:01:53;2.47;;;0.85;;
33824;SDS011;20127;48.962;8.342;2023-03-14T02:04:56;3.40;;;1.48;;
33824;SDS011;20127;48.962;8.342;2023-03-14T02:08:00;2.45;;;2.25;;
33824;SDS011;20127;48.962;8.342;2023-03-14T02:11:04;1.50;;;1.10;;
33824;SDS011;20127;48.962;8.342;2023-03-14T02:14:13;3.05;;;0.88;;
33824;SDS011;20127;48.962;8.342;2023-03-14T02:17:22;1.23;;;0.80;;
33824;SDS011;20127;48.962;8.342;2023-03-14T02:20:28;0.93;;;0.80;;
33824;SDS011;20127;48.962;8.342;2023-03-14T02:23:35;1.75;;;1.02;;
33824;SDS011;20127;48.962;8.342;2023-03-14T02:30:13;2.45;;;0.80;;
33824;SDS011;20127;48.962;8.342;2023-03-14T02:33:20;1.85;;;1.00;;
33824;SDS011;20127;48.962;8.342;2023-03-14T02:36:23;1.35;;;0.90;;
33824;SDS011;20127;48.962;8.342;2023-03-14T02:39:26;0.55;;;0.50;;
33824;SDS011;20127;48.962;8.342;2023-03-14T02:42:34;2.67;;;1.20;;
33824;SDS011;20127;48.962;8.342;2023-03-14T02:45:38;1.50;;;0.80;;
33824;SDS011;20127;48.962;8.342;2023-03-14T02:48:43;2.95;;;1.13;;
33824;SDS011;20127;48.962;8.342;2023-03-14T02:51:49;2.08;;;0.98;;
33824;SDS011;20127;48.962;8.342;2023-03-14T02:54:51;2.97;;;1.02;;
33824;SDS011;20127;48.962;8.342;2023-03-14T02:57:53;2.05;;;0.70;;
33824;SDS011;20127;48.962;8.342;2023-03-14T03:00:56;2.58;;;0.80;;
33824;SDS011;20127;48.962;8.342;2023-03-14T03:03:58;1.63;;;1.05;;
33824;SDS011;20127;48.962;8.342;2023-03-14T03:06:59;4.13;;;1.00;;
33824;SDS011;20127;48.962;8.342;2023-03-14T03:10:01;4.45;;;2.65;;
33824;SDS011;20127;48.962;8.342;2023-03-14T03:13:03;2.50;;;0.80;;
33824;SDS011;20127;48.962;8.342;2023-03-14T03:16:07;0.80;;;0.80;;
33824;SDS011;20127;48.962;8.342;2023-03-14T03:19:09;1.13;;;0.95;;
33824;SDS011;20127;48.962;8.342;2023-03-14T03:22:13;1.77;;;1.13;;
33824;SDS011;20127;48.962;8.342;2023-03-14T03:25:15;1.75;;;1.02;;
33824;SDS011;20127;48.962;8.342;2023-03-14T03:28:17;3.97;;;1.95;;
33824;SDS011;20127;48.962;8.342;2023-03-14T03:31:20;2.13;;;0.90;;
33824;SDS011;20127;48.962;8.342;2023-03-14T03:34:22;2.85;;;1.17;;
33824;SDS011;20127;48.962;8.342;2023-03-14T03:37:23;5.90;;;1.63;;
33824;SDS011;20127;48.962;8.342;2023-03-14T03:40:25;1.88;;;0.90;;
33824;SDS011;20127;48.962;8.342;2023-03-14T03:43:27;5.82;;;1.35;;
33824;SDS011;20127;48.962;8.342;2023-03-14T03:46:30;3.03;;;1.50;;
33824;SDS011;20127;48.962;8.342;2023-03-14T03:49:32;3.97;;;1.50;;
33824;SDS011;20127;48.962;8.342;2023-03-14T03:52:34;1.50;;;1.02;;
33824;SDS011;20127;48.962;8.342;2023-03-14T03:55:35;4.00;;;1.00;;
33824;SDS011;20127;48.962;8.342;2023-03-14T03:58:37;3.45;;;0.98;;
33824;SDS011;20127;48.962;8.342;2023-03-14T04:01:40;4.35;;;1.58;;
33824;SDS011;20127;48.962;8.342;2023-03-14T04:04:42;3.35;;;0.98;;
33824;SDS011;20127;48.962;8.342;2023-03-14T04:07:43;1.40;;;0.55;;
33824;SDS011;20127;48.962;8.342;2023-03-14T04:10:45;2.13;;;0.80;;
33824;SDS011;20127;48.962;8.342;2023-03-14T04:13:47;2.90;;;0.75;;
33824;SDS011;20127;48.962;8.342;2023-03-14T04:16:50;5.53;;;1.08;;
33824;SDS011;20127;48.962;8.342;2023-03-14T04:19:52;4.38;;;1.10;;
33824;SDS011;20127;48.962;8.342;2023-03-14T04:22:53;3.10;;;1.00;;
33824;SDS011;20127;48.962;8.342;2023-03-14T04:25:55;0.98;;;0.70;;
33824;SDS011;20127;48.962;8.342;2023-03-14T04:28:57;3.25;;;1.25;;
33824;SDS011;20127;48.962;8.342;2023-03-14T04:32:00;3.17;;;1.30;;
33824;SDS011;20127;48.962;8.342;2023-03-14T04:35:01;5.70;;;0.85;;
33824;SDS011;20127;48.962;8.342;2023-03-14T04:38:03;2.67;;;0.63;;
33824;SDS011;20127;48.962;8.342;2023-03-14T04:41:05;4.68;;;1.02;;
33824;SDS011;20127;48.962;8.342;2023-03-14T04:44:07;3.88;;;1.42;;
33824;SDS011;20127;48.962;8.342;2023-03-14T04:47:10;5.70;;;1.27;;
33824;SDS011;20127;48.962;8.342;2023-03-14T04:50:12;6.50;;;1.02;;
33824;SDS011;20127;48.962;8.342;2023-03-14T04:53:14;2.13;;;0.90;;
33824;SDS011;20127;48.962;8.342;2023-03-14T04:56:15;3.03;;;1.30;;
33824;SDS011;20127;48.962;8.342;2023-03-14T04:59:17;2.90;;;1.08;;
33824;SDS011;20127;48.962;8.342;2023-03-14T05:02:20;4.53;;;1.75;;
33824;SDS011;20127;48.962;8.342;2023-03-14T05:05:22;2.53;;;0.77;;
33824;SDS011;20127;48.962;8.342;2023-03-14T05:08:24;4.32;;;0.80;;
33824;SDS011;20127;48.962;8.342;2023-03-14T05:11:26;4.72;;;1.38;;
33824;SDS011;20127;48.962;8.342;2023-03-14T05:14:28;1.90;;;1.15;;
33824;SDS011;20127;48.962;8.342;2023-03-14T05:17:31;2.55;;;0.90;;
33824;SDS011;20127;48.962;8.342;2023-03-14T05:20:33;4.32;;;1.10;;
33824;SDS011;20127;48.962;8.342;2023-03-14T05:23:35;5.47;;;1.60;;
33824;SDS011;20127;48.962;8.342;2023-03-14T05:26:37;3.47;;;2.03;;
33824;SDS011;20127;48.962;8.342;2023-03-14T05:29:38;6.50;;;1.10;;
33824;SDS011;20127;48.962;8.342;2023-03-14T05:32:42;1.35;;;0.80;;
33824;SDS011;20127;48.962;8.342;2023-03-14T05:35:43;1.55;;;0.57;;
33824;SDS011;20127;48.962;8.342;2023-03-14T05:38:45;1.48;;;1.20;;
33824;SDS011;20127;48.962;8.342;2023-03-14T05:41:47;1.02;;;0.68;;
33824;SDS011;20127;48.962;8.342;2023-03-14T05:44:48;1.38;;;0.85;;
33824;SDS011;20127;48.962;8.342;2023-03-14T05:47:51;2.67;;;0.82;;
33824;SDS011;20127;48.962;8.342;2023-03-14T05:50:56;1.70;;;1.50;;
33824;SDS011;20127;48.962;8.342;2023-03-14T05:53:59;5.63;;;0.90;;
33824;SDS011;20127;48.962;8.342;2023-03-14T05:57:01;1.92;;;0.85;;
33824;SDS011;20127;48.962;8.342;2023-03-14T06:00:02;1.23;;;1.13;;
33824;SDS011;20127;48.962;8.342;2023-03-14T06:03:06;2.30;;;0.82;;
33824;SDS011;20127;48.962;8.342;2023-03-14T06:06:08;3.70;;;0.88;;
33824;SDS011;20127;48.962;8.342;2023-03-14T06:09:10;2.33;;;0.82;;
33824;SDS011;20127;48.962;8.342;2023-03-14T06:12:11;6.93;;;2.65;;
33824;SDS011;20127;48.962;8.342;2023-03-14T06:15:13;3.95;;;0.70;;
33824;SDS011;20127;48.962;8.342;2023-03-14T06:18:16;2.03;;;0.93;;
33824;SDS011;20127;48.962;8.342;2023-03-14T06:21:18;3.80;;;1.00;;
33824;SDS011;20127;48.962;8.342;2023-03-14T06:24:20;9.30;;;3.75;;
33824;SDS011;20127;48.962;8.342;2023-03-14T06:27:21;4.15;;;0.85;;
33824;SDS011;20127;48.962;8.342;2023-03-14T06:30:23;1.85;;;1.52;;
33824;SDS011;20127;48.962;8.342;2023-03-14T06:33:26;4.78;;;0.70;;
33824;SDS011;20127;48.962;8.342;2023-03-14T06:36:28;2.45;;;0.93;;
33824;SDS011;20127;48.962;8.342;2023-03-14T06:39:29;2.92;;;0.40;;
33824;SDS011;20127;48.962;8.342;2023-03-14T06:42:31;1.25;;;0.82;;
33824;SDS011;20127;48.962;8.342;2023-03-14T06:45:33;3.80;;;0.80;;
33824;SDS011;20127;48.962;8.342;2023-03-14T06:48:36;0.90;;;0.80;;
33824;SDS011;20127;48.962;8.342;2023-03-14T06:51:37;2.30;;;0.82;;
33824;SDS011;20127;48.962;8.342;2023-03-14T06:54:39;1.88;;;0.90;;
33824;SDS011;20127;48.962;8.342;2023-03-14T06:57:41;0.65;;;0.55;;
33824;SDS011;20127;48.962;8.342;2023-03-14T07:00:44;2.67;;;0.77;;
33824;SDS011;20127;48.962;8.342;2023-03-14T07:03:47;1.65;;;0.95;;
33824;SDS011;20127;48.962;8.342;2023-03-14T07:06:48;1.73;;;0.68;;
33824;SDS011;20127;48.962;8.342;2023-03-14T07:09:50;1.25;;;0.75;;
33824;SDS011;20127;48.962;8.342;2023-03-14T07:12:52;1.20;;;0.57;;
33824;SDS011;20127;48.962;8.342;2023-03-14T07:15:53;1.27;;;0.75;;
33824;SDS011;20127;48.962;8.342;2023-03-14T07:18:56;1.85;;;0.77;;
33824;SDS011;20127;48.962;8.342;2023-03-14T07:21:58;2.95;;;1.25;;
33824;SDS011;20127;48.962;8.342;2023-03-14T07:25:00;2.05;;;0.60;;
33824;SDS011;20127;48.962;8.342;2023-03-14T07:28:02;1.42;;;1.10;;
33824;SDS011;20127;48.962;8.342;2023-03-14T07:31:03;0.75;;;0.63;;
33824;SDS011;20127;48.962;8.342;2023-03-14T07:34:07;2.80;;;0.80;;
33824;SDS011;20127;48.962;8.342;2023-03-14T07:37:09;1.08;;;0.50;;
33824;SDS011;20127;48.962;8.342;2023-03-14T07:40:11;1.52;;;0.50;;
33824;SDS011;20127;48.962;8.342;2023-03-14T07:43:15;1.10;;;0.60;;
33824;SDS011;20127;48.962;8.342;2023-03-14T07:46:16;2.33;;;0.90;;
33824;SDS011;20127;48.962;8.342;2023-03-14T07:49:19;4.40;;;1.05;;
33824;SDS011;20127;48.962;8.342;2023-03-14T07:52:21;1.10;;;0.50;;
33824;SDS011;20127;48.962;8.342;2023-03-14T07:55:24;3.05;;;1.50;;
33824;SDS011;20127;48.962;8.342;2023-03-14T07:58:25;3.65;;;0.70;;
33824;SDS011;20127;48.962;8.342;2023-03-14T08:01:27;0.60;;;0.60;;
33824;SDS011;20127;48.962;8.342;2023-03-14T08:04:30;1.17;;;0.80;;
33824;SDS011;20127;48.962;8.342;2023-03-14T08:07:32;4.13;;;0.55;;
33824;SDS011;20127;48.962;8.342;2023-03-14T08:10:33;1.48;;;0.80;;
33824;SDS011;20127;48.962;8.342;2023-03-14T08:13:35;1.08;;;0.57;;
33824;SDS011;20127;48.962;8.342;2023-03-14T08:16:37;1.40;;;0.70;;
33824;SDS011;20127;48.962;8.342;2023-03-14T08:19:41;3.35;;;0.60;;
33824;SDS011;20127;48.962;8.342;2023-03-14T08:22:43;1.27;;;0.77;;
33824;SDS011;20127;48.962;8.342;2023-03-14T08:25:45;0.73;;;0.40;;
33824;SDS011;20127;48.962;8.342;2023-03-14T08:28:50;6.32;;;0.60;;
33824;SDS011;20127;48.962;8.342;2023-03-14T08:31:51;1.27;;;0.63;;
33824;SDS011;20127;48.962;8.342;2023-03-14T08:34:56;1.73;;;0.63;;
33824;SDS011;20127;48.962;8.342;2023-03-14T08:37:57;0.75;;;0.75;;
33824;SDS011;20127;48.962;8.342;2023-03-14T08:41:00;0.77;;;0.50;;
33824;SDS011;20127;48.962;8.342;2023-03-14T08:44:02;2.63;;;1.35;;
33824;SDS011;20127;48.962;8.342;2023-03-14T08:47:04;0.98;;;0.55;;
33824;SDS011;20127;48.962;8.342;2023-03-14T08:50:08;1.65;;;0.60;;
33824;SDS011;20127;48.962;8.342;2023-03-14T08:53:10;1.17;;;0.75;;
33824;SDS011;20127;48.962;8.342;2023-03-14T08:56:12;0.32;;;0.32;;
33824;SDS011;20127;48.962;8.342;2023-03-14T08:59:13;0.60;;;0.50;;
33824;SDS011;20127;48.962;8.342;2023-03-14T09:02:15;0.30;;;0.30;;
33824;SDS011;20127;48.962;8.342;2023-03-14T09:05:18;0.65;;;0.47;;
33824;SDS011;20127;48.962;8.342;2023-03-14T09:08:20;1.50;;;0.77;;
33824;SDS011;20127;48.962;8.342;2023-03-14T09:11:22;0.73;;;0.50;;
33824;SDS011;20127;48.962;8.342;2023-03-14T09:14:23;1.95;;;0.73;;
33824;SDS011;20127;48.962;8.342;2023-03-14T09:17:25;0.60;;;0.60;;
33824;SDS011;20127;48.962;8.342;2023-03-14T09:20:29;1.23;;;0.50;;
33824;SDS011;20127;48.962;8.342;2023-03-14T09:23:30;2.35;;;0.68;;
33824;SDS011;20127;48.962;8.342;2023-03-14T09:26:32;0.85;;;0.50;;
33824;SDS011;20127;48.962;8.342;2023-03-14T09:29:34;1.38;;;0.63;;
33824;SDS011;20127;48.962;8.342;2023-03-14T09:32:36;1.75;;;0.50;;
33824;SDS011;20127;48.962;8.342;2023-03-14T09:35:39;0.57;;;0.30;;
33824;SDS011;20127;48.962;8.342;2023-03-14T09:38:42;0.80;;;0.40;;
33824;SDS011;20127;48.962;8.342;2023-03-14T09:41:44;0.88;;;0.30;;
33824;SDS011;20127;48.962;8.342;2023-03-14T09:44:52;0.50;;;0.43;;
33824;SDS011;20127;48.962;8.342;2023-03-14T09:47:56;0.73;;;0.38;;
33824;SDS011;20127;48.962;8.342;2023-03-14T09:51:01;0.40;;;0.40;;
33824;SDS011;20127;48.962;8.342;2023-03-14T09:54:08;1.00;;;0.57;;
33824;SDS011;20127;48.962;8.342;2023-03-14T09:57:24;1.17;;;0.40;;
33824;SDS011;20127;48.962;8.342;2023-03-14T10:00:27;0.30;;;0.30;;
33824;SDS011;20127;48.962;8.342;2023-03-14T10:03:31;0.30;;;0.30;;
33824;SDS011;20127;48.962;8.342;2023-03-14T10:06:35;0.35;;;0.35;;
33824;SDS011;20127;48.962;8.342;2023-03-14T10:09:37;0.75;;;0.50;;
33824;SDS011;20127;48.962;8.342;2023-03-14T10:12:39;0.35;;;0.35;;
33824;SDS011;20127;48.962;8.342;2023-03-14T10:15:42;1.33;;;0.47;;
33824;SDS011;20127;48.962;8.342;2023-03-14T10:18:49;0.63;;;0.47;;
33824;SDS011;20127;48.962;8.342;2023-03-14T10:21:52;2.67;;;0.68;;
33824;SDS011;20127;48.962;8.342;2023-03-14T10:25:01;1.10;;;0.70;;
33824;SDS011;20127;48.962;8.342;2023-03-14T10:28:10;1.42;;;0.50;;
33824;SDS011;20127;48.962;8.342;2023-03-14T10:31:24;2.43;;;0.60;;
33824;SDS011;20127;48.962;8.342;2023-03-14T10:34:27;0.85;;;0.73;;
33824;SDS011;20127;48.962;8.342;2023-03-14T10:37:31;0.28;;;0.28;;
33824;SDS011;20127;48.962;8.342;2023-03-14T10:40:33;0.35;;;0.35;;
33824;SDS011;20127;48.962;8.342;2023-03-14T10:43:38;1.10;;;0.60;;
33824;SDS011;20127;48.962;8.342;2023-03-14T10:46:41;2.78;;;0.47;;
33824;SDS011;20127;48.962;8.342;2023-03-14T10:49:43;0.98;;;0.52;;
33824;SDS011;20127;48.962;8.342;2023-03-14T10:52:48;0.50;;;0.50;;
33824;SDS011;20127;48.962;8.342;2023-03-14T10:55:50;0.38;;;0.38;;
33824;SDS011;20127;48.962;8.342;2023-03-14T10:58:53;0.85;;;0.40;;
33824;SDS011;20127;48.962;8.342;2023-03-14T11:01:58;0.65;;;0.47;;
33824;SDS011;20127;48.962;8.342;2023-03-14T11:05:08;0.30;;;0.30;;
33824;SDS011;20127;48.962;8.342;2023-03-14T11:08:20;0.52;;;0.52;;
33824;SDS011;20127;48.962;8.342;2023-03-14T11:11:26;0.70;;;0.50;;
33824;SDS011;20127;48.962;8.342;2023-03-14T11:14:31;0.40;;;0.40;;
33824;SDS011;20127;48.962;8.342;2023-03-14T11:17:38;0.70;;;0.70;;
33824;SDS011;20127;48.962;8.342;2023-03-14T11:20:46;0.50;;;0.50;;
33824;SDS011;20127;48.962;8.342;2023-03-14T11:23:58;1.03;;;0.87;;
33824;SDS011;20127;48.962;8.342;2023-03-14T11:27:10;0.65;;;0.55;;
33824;SDS011;20127;48.962;8.342;2023-03-14T11:30:19;0.93;;;0.60;;
33824;SDS011;20127;48.962;8.342;2023-03-14T11:33:24;0.93;;;0.77;;
33824;SDS011;20127;48.962;8.342;2023-03-14T11:36:29;1.10;;;0.60;;
33824;SDS011;20127;48.962;8.342;2023-03-14T11:39:39;0.95;;;0.82;;
33824;SDS011;20127;48.962;8.342;2023-03-14T11:42:42;2.83;;;0.77;;
33824;SDS011;20127;48.962;8.342;2023-03-14T11:45:47;0.68;;;0.68;;
33824;SDS011;20127;48.962;8.342;2023-03-14T11:48:55;2.65;;;1.05;;
33824;SDS011;20127;48.962;8.342;2023-03-14T11:52:03;1.25;;;1.15;;
33824;SDS011;20127;48.962;8.342;2023-03-14T11:55:10;1.40;;;1.30;;
33824;SDS011;20127;48.962;8.342;2023-03-14T11:58:17;1.98;;;1.08;;
33824;SDS011;20127;48.962;8.342;2023-03-14T12:01:21;3.50;;;1.25;;
33824;SDS011;20127;48.962;8.342;2023-03-14T12:04:31;1.45;;;1.20;;
33824;SDS011;20127;48.962;8.342;2023-03-14T12:07:43;2.15;;;1.38;;
33824;SDS011;20127;48.962;8.342;2023-03-14T12:11:06;1.67;;;1.52;;
33824;SDS011;20127;48.962;8.342;2023-03-14T12:14:17;1.10;;;0.80;;
33824;SDS011;20127;48.962;8.342;2023-03-14T12:20:25;2.40;;;2.20;;
33824;SDS011;20127;48.962;8.342;2023-03-14T12:23:28;3.97;;;3.58;;
33824;SDS011;20127;48.962;8.342;2023-03-14T12:26:46;6.22;;;4.95;;
33824;SDS011;20127;48.962;8.342;2023-03-14T12:29:57;4.38;;;2.60;;
33824;SDS011;20127;48.962;8.342;2023-03-14T12:40:15;1.27;;;0.80;;
33824;SDS011;20127;48.962;8.342;2023-03-14T12:43:25;2.30;;;0.60;;
33824;SDS011;20127;48.962;8.342;2023-03-14T12:46:29;1.35;;;0.75;;
33824;SDS011;20127;48.962;8.342;2023-03-14T12:49:31;1.40;;;0.60;;
33824;SDS011;20127;48.962;8.342;2023-03-14T12:52:40;3.97;;;0.88;;
33824;SDS011;20127;48.962;8.342;2023-03-14T12:55:48;1.45;;;1.10;;
33824;SDS011;20127;48.962;8.342;2023-03-14T12:59:01;2.83;;;0.95;;
33824;SDS011;20127;48.962;8.342;2023-03-14T13:02:20;2.60;;;0.70;;
33824;SDS011;20127;48.962;8.342;2023-03-14T13:05:24;1.50;;;0.80;;
33824;SDS011;20127;48.962;8.342;2023-03-14T13:08:34;0.98;;;0.40;;
33824;SDS011;20127;48.962;8.342;2023-03-14T13:11:38;2.00;;;0.70;;
33824;SDS011;20127;48.962;8.342;2023-03-14T13:14:45;2.63;;;0.68;;
33824;SDS011;20127;48.962;8.342;2023-03-14T13:17:49;2.35;;;0.75;;
33824;SDS011;20127;48.962;8.342;2023-03-14T13:20:55;0.70;;;0.63;;
33824;SDS011;20127;48.962;8.342;2023-03-14T13:24:01;1.17;;;0.80;;
33824;SDS011;20127;48.962;8.342;2023-03-14T13:27:05;0.63;;;0.60;;
33824;SDS011;20127;48.962;8.342;2023-03-14T13:30:21;3.67;;;0.60;;
33824;SDS011;20127;48.962;8.342;2023-03-14T13:33:24;6.57;;;0.70;;
33824;SDS011;20127;48.962;8.342;2023-03-14T13:36:26;1.63;;;0.75;;
33824;SDS011;20127;48.962;8.342;2023-03-14T13:39:28;2.00;;;0.80;;
33824;SDS011;20127;48.962;8.342;2023-03-14T13:42:31;0.80;;;0.80;;
33824;SDS011;20127;48.962;8.342;2023-03-14T13:45:42;1.50;;;1.27;;
33824;SDS011;20127;48.962;8.342;2023-03-14T13:48:47;6.80;;;1.25;;
33824;SDS011;20127;48.962;8.342;2023-03-14T13:51:50;2.13;;;1.15;;
33824;SDS011;20127;48.962;8.342;2023-03-14T13:54:52;4.45;;;1.40;;
33824;SDS011;20127;48.962;8.342;2023-03-14T13:57:55;24.58;;;19.98;;
33824;SDS011;20127;48.962;8.342;2023-03-14T14:01:00;26.77;;;24.10;;
33824;SDS011;20127;48.962;8.342;2023-03-14T14:04:05;5.80;;;3.38;;
33824;SDS011;20127;48.962;8.342;2023-03-14T14:07:09;2.00;;;1.30;;
33824;SDS011;20127;48.962;8.342;2023-03-14T14:10:18;1.33;;;0.90;;
33824;SDS011;20127;48.962;8.342;2023-03-14T14:13:20;2.25;;;1.65;;
33824;SDS011;20127;48.962;8.342;2023-03-14T14:16:26;4.10;;;0.90;;
33824;SDS011;20127;48.962;8.342;2023-03-14T14:19:29;6.95;;;1.17;;
33824;SDS011;20127;48.962;8.342;2023-03-14T14:22:34;3.30;;;1.13;;
33824;SDS011;20127;48.962;8.342;2023-03-14T14:25:37;2.17;;;0.57;;
33824;SDS011;20127;48.962;8.342;2023-03-14T14:28:39;3.50;;;1.15;;
33824;SDS011;20127;48.962;8.342;2023-03-14T14:31:42;5.45;;;2.20;;
33824;SDS011;20127;48.962;8.342;2023-03-14T14:34:45;2.63;;;0.90;;
33824;SDS011;20127;48.962;8.342;2023-03-14T14:37:56;5.65;;;1.30;;
33824;SDS011;20127;48.962;8.342;2023-03-14T14:40:59;2.05;;;0.95;;
33824;SDS011;20127;48.962;8.342;2023-03-14T14:44:03;2.75;;;1.17;;
33824;SDS011;20127;48.962;8.342;2023-03-14T14:47:06;4.18;;;0.70;;
33824;SDS011;20127;48.962;8.342;2023-03-14T14:53:22;5.32;;;1.08;;
33824;SDS011;20127;48.962;8.342;2023-03-14T14:56:28;5.00;;;2.08;;
33824;SDS011;20127;48.962;8.342;2023-03-14T14:59:30;29.65;;;12.55;;
33824;SDS011;20127;48.962;8.342;2023-03-14T15:02:37;56.20;;;28.00;;
33824;SDS011;20127;48.962;8.342;2023-03-14T15:05:44;40.35;;;22.15;;
33824;SDS011;20127;48.962;8.342;2023-03-14T15:08:47;49.40;;;25.75;;
33824;SDS011;20127;48.962;8.342;2023-03-14T15:11:49;13.05;;;7.78;;
33824;SDS011;20127;48.962;8.342;2023-03-14T15:14:51;6.00;;;3.25;;
33824;SDS011;20127;48.962;8.342;2023-03-14T15:17:55;24.63;;;19.85;;
33824;SDS011;20127;48.962;8.342;2023-03-14T15:20:57;7.60;;;2.80;;
33824;SDS011;20127;48.962;8.342;2023-03-14T15:24:00;3.28;;;1.92;;
33824;SDS011;20127;48.962;8.342;2023-03-14T15:27:02;3.42;;;1.60;;
33824;SDS011;20127;48.962;8.342;2023-03-14T15:30:04;10.23;;;3.53;;
33824;SDS011;20127;48.962;8.342;2023-03-14T15:33:08;4.28;;;1.42;;
33824;SDS011;20127;48.962;8.342;2023-03-14T15:36:15;2.15;;;1.45;;
33824;SDS011;20127;48.962;8.342;2023-03-14T15:39:21;3.03;;;1.17;;
33824;SDS011;20127;48.962;8.342;2023-03-14T15:42:23;4.93;;;1.30;;
33824;SDS011;20127;48.962;8.342;2023-03-14T15:45:25;3.58;;;1.50;;
33824;SDS011;20127;48.962;8.342;2023-03-14T15:48:27;10.77;;;1.48;;
33824;SDS011;20127;48.962;8.342;2023-03-14T15:51:29;5.05;;;1.73;;
33824;SDS011;20127;48.962;8.342;2023-03-14T15:54:32;2.30;;;1.35;;
33824;SDS011;20127;48.962;8.342;2023-03-14T15:57:33;5.20;;;1.20;;
33824;SDS011;20127;48.962;8.342;2023-03-14T16:00:35;6.88;;;1.90;;
33824;SDS011;20127;48.962;8.342;2023-03-14T16:03:39;5.70;;;1.17;;
33824;SDS011;20127;48.962;8.342;2023-03-14T16:06:41;5.45;;;1.65;;
33824;SDS011;20127;48.962;8.342;2023-03-14T16:09:44;11.07;;;2.92;;
33824;SDS011;20127;48.962;8.342;2023-03-14T16:12:46;3.95;;;1.60;;
33824;SDS011;20127;48.962;8.342;2023-03-14T16:15:54;5.97;;;2.47;;
33824;SDS011;20127;48.962;8.342;2023-03-14T16:18:58;4.53;;;1.33;;
33824;SDS011;20127;48.962;8.342;2023-03-14T16:21:59;3.45;;;1.58;;
33824;SDS011;20127;48.962;8.342;2023-03-14T16:25:01;6.65;;;2.10;;
33824;SDS011;20127;48.962;8.342;2023-03-14T16:28:04;6.00;;;2.00;;
33824;SDS011;20127;48.962;8.342;2023-03-14T16:31:06;4.53;;;1.40;;
33824;SDS011;20127;48.962;8.342;2023-03-14T16:34:10;4.28;;;1.08;;
33824;SDS011;20127;48.962;8.342;2023-03-14T16:37:12;1.35;;;1.00;;
33824;SDS011;20127;48.962;8.342;2023-03-14T16:40:14;2.28;;;1.10;;
33824;SDS011;20127;48.962;8.342;2023-03-14T16:43:16;3.35;;;1.70;;
33824;SDS011;20127;48.962;8.342;2023-03-14T16:46:18;2.30;;;1.80;;
33824;SDS011;20127;48.962;8.342;2023-03-14T16:49:22;2.50;;;2.30;;
33824;SDS011;20127;48.962;8.342;2023-03-14T16:52:24;4.20;;;1.08;;
33824;SDS011;20127;48.962;8.342;2023-03-14T16:55:26;1.92;;;1.67;;
33824;SDS011;20127;48.962;8.342;2023-03-14T16:58:27;9.18;;;3.20;;
33824;SDS011;20127;48.962;8.342;2023-03-14T17:01:30;4.05;;;2.13;;
33824;SDS011;20127;48.962;8.342;2023-03-14T17:04:33;7.88;;;1.80;;
33824;SDS011;20127;48.962;8.342;2023-03-14T17:07:34;6.63;;;3.90;;
33824;SDS011;20127;48.962;8.342;2023-03-14T17:10:36;1.60;;;1.50;;
33824;SDS011;20127;48.962;8.342;2023-03-14T17:13:38;3.00;;;2.40;;
33824;SDS011;20127;48.962;8.342;2023-03-14T17:16:39;5.88;;;2.70;;
33824;SDS011;20127;48.962;8.342;2023-03-14T17:19:42;4.60;;;2.10;;
33824;SDS011;20127;48.962;8.342;2023-03-14T17:22:44;3.22;;;1.75;;
33824;SDS011;20127;48.962;8.342;2023-03-14T17:25:46;8.38;;;2.63;;
33824;SDS011;20127;48.962;8.342;2023-03-14T17:28:49;2.85;;;1.70;;
33824;SDS011;20127;48.962;8.342;2023-03-14T17:31:51;7.28;;;2.83;;
33824;SDS011;20127;48.962;8.342;2023-03-14T17:34:54;3.33;;;1.67;;
33824;SDS011;20127;48.962;8.342;2023-03-14T17:37:56;5.35;;;1.67;;
33824;SDS011;20127;48.962;8.342;2023-03-14T17:40:58;5.63;;;2.05;;
33824;SDS011;20127;48.962;8.342;2023-03-14T17:44:00;3.92;;;1.77;;
33824;SDS011;20127;48.962;8.342;2023-03-14T17:47:01;3.92;;;1.23;;
33824;SDS011;20127;48.962;8.342;2023-03-14T17:50:05;4.28;;;1.73;;
33824;SDS011;20127;48.962;8.342;2023-03-14T17:53:07;7.45;;;2.25;;
33824;SDS011;20127;48.962;8.342;2023-03-14T17:56:09;3.70;;;1.60;;
33824;SDS011;20127;48.962;8.342;2023-03-14T17:59:11;3.05;;;1.90;;
33824;SDS011;20127;48.962;8.342;2023-03-14T18:02:13;3.60;;;1.65;;
33824;SDS011;20127;48.962;8.342;2023-03-14T18:05:16;2.80;;;1.48;;
33824;SDS011;20127;48.962;8.342;2023-03-14T18:08:18;2.25;;;1.70;;
33824;SDS011;20127;48.962;8.342;2023-03-14T18:11:20;4.00;;;1.73;;
33824;SDS011;20127;48.962;8.342;2023-03-14T18:14:22;5.07;;;1.73;;
33824;SDS011;20127;48.962;8.342;2023-03-14T18:17:24;2.53;;;1.58;;
33824;SDS011;20127;48.962;8.342;2023-03-14T18:20:27;2.47;;;1.73;;
33824;SDS011;20127;48.962;8.342;2023-03-14T18:23:29;10.05;;;3.83;;
33824;SDS011;20127;48.962;8.342;2023-03-14T18:26:31;5.68;;;1.35;;
33824;SDS011;20127;48.962;8.342;2023-03-14T18:29:32;4.28;;;2.40;;
33824;SDS011;20127;48.962;8.342;2023-03-14T18:32:35;5.70;;;3.00;;
33824;SDS011;20127;48.962;8.342;2023-03-14T18:35:38;9.32;;;3.80;;
33824;SDS011;20127;48.962;8.342;2023-03-14T18:38:40;5.85;;;2.47;;
33824;SDS011;20127;48.962;8.342;2023-03-14T18:41:42;5.10;;;2.13;;
33824;SDS011;20127;48.962;8.342;2023-03-14T18:44:44;6.13;;;2.22;;